Time;durP1;ratioP1;P1;durP2;ratioP2;P2;SDS_P1;SDS_P2;PMS_P1;PMS_P2;Temp;Humidity;BMP_temperature;BMP_pressure;BME280_temperature;BME280_humidity;BME280_pressure;Samples;Min_cycle;Max_cycle;Signal;HPM_P1;HPM_P2
2021/04/09 00:01:42;;;;;;;;;;;;;;;-142.75;60.78;78423.06;5071591;28;19920;-73
2021/04/09 00:04:07;;;;;;;;;;;;;;;-142.75;60.89;78423.06;5054791;28;19919;-73
2021/04/09 00:06:33;;;;;;;;;;;;;;;-142.75;60.46;78413.22;5071936;28;19912;-74
2021/04/09 00:08:58;;;;;;;;;;;;;;;-142.75;60.19;78417.16;5071696;28;19921;-73
2021/04/09 00:11:23;;;;;;;;;;;;;;;-142.75;60.17;78425.03;5071334;28;19935;-71
2021/04/09 00:13:48;;;;;;;;;;;;;;;-142.75;59.91;78432.91;5071655;28;20291;-73
2021/04/09 00:16:14;;;;;;;;;;;;;;;-142.75;59.91;78440.78;5053282;28;20006;-73
2021/04/09 00:18:39;;;;;;;;;;;;;;;-142.75;59.25;78413.22;5070594;28;19916;-72
2021/04/09 00:21:04;;;;;;;;;;;;;;;-142.75;59.24;78423.06;5071128;28;20009;-73
2021/04/09 00:23:29;;;;;;;;;;;;;;;-142.75;59.18;78405.34;5069837;28;19912;-74
2021/04/09 00:25:54;;;;;;;;;;;;;;;-142.75;59.54;78405.34;5071081;28;19920;-74
2021/04/09 00:28:20;;;;;;;;;;;;;;;-142.75;58.76;78375.78;5053103;28;19924;-73
2021/04/09 00:30:45;;;;;;;;;;;;;;;-142.75;58.97;78381.69;5056837;28;19912;-73
2021/04/09 00:33:11;;;;;;;;;;;;;;;-142.75;58.85;78385.63;5066703;28;19924;-72
2021/04/09 00:35:36;;;;;;;;;;;;;;;-142.75;58.95;78385.63;5053288;28;20008;-73
2021/04/09 00:38:01;;;;;;;;;;;;;;;-142.75;59.19;78399.44;5071110;28;19931;-73
2021/04/09 00:40:26;;;;;;;;;;;;;;;-142.75;58.34;78395.47;5052630;28;20452;-73
2021/04/09 00:42:52;;;;;;;;;;;;;;;-142.75;57.76;78399.44;5071052;28;20006;-74
2021/04/09 00:45:17;;;;;;;;;;;;;;;-142.75;57.85;78397.44;5053162;28;20494;-72
2021/04/09 00:47:43;;;;;;;;;;;;;;;-142.75;56.79;78377.75;5070519;28;19962;-74
2021/04/09 00:50:09;;;;;;;;;;;;;;;-142.75;57.36;78385.63;5069471;28;20499;-73
2021/04/09 00:52:35;;;;;;;;;;;;;;;-142.75;56.64;78352.16;5070092;28;20018;-74
2021/04/09 00:55:01;;;;;;;;;;;;;;;-142.75;56.68;78363.97;5062525;28;19999;-74
2021/04/09 00:57:26;;;;;;;;;;;;;;;-142.75;56.62;78354.13;5052427;28;19912;-73
2021/04/09 00:59:52;;;;;;;;;;;;;;;-142.75;56.82;78362.00;5069023;28;19920;-73
2021/04/09 01:02:17;;;;;;;;;;;;;;;-142.75;57.07;78354.13;5062029;28;19912;-73
2021/04/09 01:04:42;;;;;;;;;;;;;;;-142.75;56.57;78350.19;5071617;28;19954;-71
2021/04/09 01:07:07;;;;;;;;;;;;;;;-142.75;56.55;78346.25;5052419;28;19952;-73
2021/04/09 01:09:35;;;;;;;;;;;;;;;-142.75;57.24;78367.91;5070578;28;19943;-74
2021/04/09 01:12:01;;;;;;;;;;;;;;;-142.75;57.10;78369.88;5054716;28;19916;-73
2021/04/09 01:14:26;;;;;;;;;;;;;;;-142.75;57.09;78354.13;5068797;28;19920;-73
2021/04/09 01:17:12;;;;;;;;;;;;;;;-142.75;57.29;78358.06;5070191;28;19916;-71
2021/04/09 01:19:55;;;;;;;;;;;;;;;-142.75;57.35;78358.06;5068659;28;19924;-73
2021/04/09 01:22:23;;;;;;;;;;;;;;;-142.75;57.65;78365.94;5051724;28;20294;-72
2021/04/09 01:24:51;;;;;;;;;;;;;;;-142.75;57.77;78369.88;5062162;28;19912;-73
2021/04/09 01:27:41;;;;;;;;;;;;;;;-142.75;57.79;78373.81;5051457;28;19925;-73
2021/04/09 01:30:25;;;;;;;;;;;;;;;-142.75;57.98;78377.75;5069632;28;19912;-74
2021/04/09 01:32:52;;;;;;;;;;;;;;;-142.75;57.95;78377.75;5052113;28;19923;-73
2021/04/09 01:35:20;;;;;;;;;;;;;;;-142.75;58.20;78385.63;5070738;28;19934;-71
2021/04/09 01:37:52;;;;;;;;;;;;;;;-142.75;58.40;78379.72;5051781;28;20011;-73
2021/04/09 01:40:26;;;;;;;;;;;;;;;-142.75;58.70;78393.50;5069806;28;19955;-73
2021/04/09 01:42:53;;;;;;;;;;;;;;;-142.75;59.10;78381.69;5069961;28;19920;-73
2021/04/09 01:45:19;;;;;;;;;;;;;;;-142.75;58.74;78375.78;5069795;28;19967;-74
2021/04/09 01:47:45;;;;;;;;;;;;;;;-142.75;58.72;78371.84;5051618;28;19916;-73
2021/04/09 01:50:12;;;;;;;;;;;;;;;-142.75;58.60;78365.94;5069885;28;19920;-72
2021/04/09 01:52:38;;;;;;;;;;;;;;;-142.75;58.65;78377.75;5069248;28;19912;-73
2021/04/09 01:55:06;;;;;;;;;;;;;;;-142.75;59.23;78379.72;5051684;28;20279;-74
2021/04/09 01:57:32;;;;;;;;;;;;;;;-142.75;59.55;78371.84;5051472;28;19924;-73
2021/04/09 01:59:58;;;;;;;;;;;;;;;-142.75;59.58;78369.88;5069067;28;19999;-73
2021/04/09 02:02:24;;;;;;;;;;;;;;;-142.75;59.35;78365.94;5069475;28;19913;-75
2021/04/09 02:04:50;;;;;;;;;;;;;;;-142.75;59.52;78367.91;5052604;28;19912;-74
2021/04/09 02:07:18;;;;;;;;;;;;;;;-142.75;58.97;78360.03;5069307;28;19920;-73
2021/04/09 02:09:44;;;;;;;;;;;;;;;-142.75;59.07;78363.97;5069470;28;20337;-73
2021/04/09 02:12:14;;;;;;;;;;;;;;;-142.75;58.97;78354.13;5051130;28;19920;-73
2021/04/09 02:14:41;;;;;;;;;;;;;;;-142.75;58.59;78336.41;5051372;28;19913;-73
2021/04/09 02:17:07;;;;;;;;;;;;;;;-142.75;58.51;78340.34;5069407;28;19912;-73
2021/04/09 02:19:33;;;;;;;;;;;;;;;-142.75;57.86;78320.66;5067888;28;19916;-74
2021/04/09 02:21:58;;;;;;;;;;;;;;;-142.75;58.17;78324.59;5060546;28;19919;-72
2021/04/09 02:24:23;;;;;;;;;;;;;;;-142.75;58.17;78322.63;5049794;28;19919;-72
2021/04/09 02:26:48;;;;;;;;;;;;;;;-142.75;57.65;78310.81;5067194;28;19918;-73
2021/04/09 02:29:14;;;;;;;;;;;;;;;-142.75;58.20;78326.56;5051026;28;19931;-73
2021/04/09 02:31:40;;;;;;;;;;;;;;;-142.75;58.28;78326.56;5031106;28;20008;-73
2021/04/09 02:34:05;;;;;;;;;;;;;;;-142.75;57.95;78314.75;5050170;28;19913;-73
2021/04/09 02:36:31;;;;;;;;;;;;;;;-142.75;58.25;78314.75;5031315;28;19916;-72
2021/04/09 02:39:03;;;;;;;;;;;;;;;-142.75;57.42;78302.94;5049106;28;19916;-73
2021/04/09 02:41:33;;;;;;;;;;;;;;;-142.75;57.57;78300.97;5067511;28;20438;-73
2021/04/09 02:44:00;;;;;;;;;;;;;;;-142.75;57.04;78291.09;5051058;28;19919;-73
2021/04/09 02:46:34;;;;;;;;;;;;;;;-142.75;57.80;78302.94;5054909;28;20348;-71
2021/04/09 02:49:02;;;;;;;;;;;;;;;-142.75;57.57;78297.00;5049520;28;20335;-72
2021/04/09 02:51:28;;;;;;;;;;;;;;;-142.75;57.92;78302.94;5068390;28;19965;-73
2021/04/09 02:53:55;;;;;;;;;;;;;;;-142.75;57.67;78299.00;5069291;28;20419;-73
2021/04/09 02:56:23;;;;;;;;;;;;;;;-142.75;57.54;78283.22;5050989;28;19938;-73
2021/04/09 02:58:49;;;;;;;;;;;;;;;-142.75;57.76;78289.13;5068890;28;19923;-73
2021/04/09 03:01:14;;;;;;;;;;;;;;;-142.75;57.45;78287.16;5068661;28;19912;-73
2021/04/09 03:03:40;;;;;;;;;;;;;;;-142.75;57.67;78279.28;5052089;28;19964;-73
2021/04/09 03:06:06;;;;;;;;;;;;;;;-142.75;57.32;78269.44;5068887;28;20461;-74
2021/04/09 03:08:31;;;;;;;;;;;;;;;-142.75;57.63;78279.28;5068877;28;20020;-73
2021/04/09 03:11:00;;;;;;;;;;;;;;;-142.75;57.69;78275.34;5068611;28;19936;-73
2021/04/09 03:13:25;;;;;;;;;;;;;;;-142.75;57.54;78279.28;5071235;28;19919;-71
2021/04/09 03:15:54;;;;;;;;;;;;;;;-142.75;57.79;78277.31;5072429;28;19916;-73
2021/04/09 03:18:19;;;;;;;;;;;;;;;-142.75;57.57;78285.19;5070603;28;19917;-73
2021/04/09 03:20:44;;;;;;;;;;;;;;;-142.75;58.11;78283.22;5072443;28;19932;-73
2021/04/09 03:23:10;;;;;;;;;;;;;;;-142.75;57.85;78287.16;5058744;28;19916;-71
2021/04/09 03:25:36;;;;;;;;;;;;;;;-142.75;57.87;78285.19;5072577;28;19978;-73
2021/04/09 03:28:01;;;;;;;;;;;;;;;-142.75;57.85;78283.22;5072420;28;19923;-73
2021/04/09 03:30:26;;;;;;;;;;;;;;;-142.75;58.42;78291.09;5054388;28;20370;-72
2021/04/09 03:32:52;;;;;;;;;;;;;;;-142.75;58.17;78287.16;5072322;28;20325;-73
2021/04/09 03:35:17;;;;;;;;;;;;;;;-142.75;58.61;78293.06;5073256;28;19913;-73
2021/04/09 03:37:43;;;;;;;;;;;;;;;-142.75;58.22;78275.34;5072288;28;19959;-71
2021/04/09 03:40:08;;;;;;;;;;;;;;;-142.75;58.17;78269.44;5072265;28;20370;-74
2021/04/09 03:42:34;;;;;;;;;;;;;;;-142.75;58.20;78257.63;5053988;28;19912;-73
2021/04/09 03:44:59;;;;;;;;;;;;;;;-142.75;58.20;78257.63;5072220;28;20007;-73
2021/04/09 03:47:24;;;;;;;;;;;;;;;-142.75;58.31;78259.59;5071886;28;19920;-73
2021/04/09 03:49:49;;;;;;;;;;;;;;;-142.75;58.28;78251.72;5072016;28;20321;-71
2021/04/09 03:52:14;;;;;;;;;;;;;;;-142.75;58.28;78247.78;5071700;28;19912;-73
2021/04/09 03:54:39;;;;;;;;;;;;;;;-142.75;58.45;78249.75;5072070;28;19912;-73
2021/04/09 03:57:05;;;;;;;;;;;;;;;-142.75;58.54;78247.78;5071723;28;19912;-72
2021/04/09 03:59:30;;;;;;;;;;;;;;;-142.75;58.42;78247.78;5071864;28;19920;-73
2021/04/09 04:01:55;;;;;;;;;;;;;;;-142.75;58.24;78232.03;5071645;28;19920;-73
2021/04/09 04:04:21;;;;;;;;;;;;;;;-142.75;58.28;78235.97;5072884;28;20282;-71
2021/04/09 04:06:46;;;;;;;;;;;;;;;-142.75;58.73;78253.69;5071949;28;20003;-73
2021/04/09 04:09:11;;;;;;;;;;;;;;;-142.75;59.04;78255.66;5071721;28;20007;-73
2021/04/09 04:11:36;;;;;;;;;;;;;;;-142.75;58.21;78245.81;5072644;28;19909;-72
2021/04/09 04:14:01;;;;;;;;;;;;;;;-142.75;58.48;78249.75;5071826;28;19948;-73
2021/04/09 04:16:27;;;;;;;;;;;;;;;-142.75;58.88;78257.63;5071666;28;19912;-73
2021/04/09 04:18:52;;;;;;;;;;;;;;;-142.75;58.80;78255.66;5070627;28;19916;-75
2021/04/09 04:21:18;;;;;;;;;;;;;;;-142.75;59.14;78259.59;5069861;28;19973;-70
2021/04/09 04:23:43;;;;;;;;;;;;;;;-142.75;59.41;78271.41;5069610;28;19911;-70
2021/04/09 04:26:08;;;;;;;;;;;;;;;-142.75;59.83;78283.22;5054672;28;20046;-73
2021/04/09 04:28:33;;;;;;;;;;;;;;;-142.75;59.53;78283.22;5071371;28;19912;-73
2021/04/09 04:30:58;;;;;;;;;;;;;;;-142.75;59.82;78302.94;5071044;28;20393;-73
2021/04/09 04:33:24;;;;;;;;;;;;;;;-142.75;60.17;78297.00;5071651;28;19920;-73
2021/04/09 04:35:50;;;;;;;;;;;;;;;-142.75;60.02;78287.16;5054035;28;19912;-73
2021/04/09 04:38:16;;;;;;;;;;;;;;;-142.75;60.31;78295.06;5071279;28;20459;-73
2021/04/09 04:40:41;;;;;;;;;;;;;;;-142.75;60.24;78291.09;5071104;28;20339;-74
2021/04/09 04:43:06;;;;;;;;;;;;;;;-142.75;60.31;78308.84;5061649;28;20370;-73
2021/04/09 04:45:32;;;;;;;;;;;;;;;-142.75;60.69;78297.00;5054066;28;20489;-73
2021/04/09 04:47:57;;;;;;;;;;;;;;;-142.75;60.95;78308.84;5069674;28;19919;-71
2021/04/09 04:50:23;;;;;;;;;;;;;;;-142.75;60.82;78302.94;5063407;28;19967;-73
2021/04/09 04:52:48;;;;;;;;;;;;;;;-142.75;60.61;78297.00;5061216;28;19912;-73
2021/04/09 04:55:14;;;;;;;;;;;;;;;-142.75;60.66;78295.06;5040959;28;19912;-73
2021/04/09 04:57:39;;;;;;;;;;;;;;;-142.75;60.88;78297.00;5053114;28;19923;-74
2021/04/09 05:00:05;;;;;;;;;;;;;;;-142.75;60.77;78295.06;5070590;28;19917;-72
2021/04/09 05:02:30;;;;;;;;;;;;;;;-142.75;60.94;78300.97;5070352;28;19958;-73
2021/04/09 05:04:55;;;;;;;;;;;;;;;-142.75;60.53;78287.16;5071821;28;19965;-74
2021/04/09 05:07:20;;;;;;;;;;;;;;;-142.75;60.57;78287.16;5052653;28;19920;-73
2021/04/09 05:09:45;;;;;;;;;;;;;;;-142.75;60.76;78287.16;5070633;28;20393;-74
2021/04/09 05:12:10;;;;;;;;;;;;;;;-142.75;60.97;78291.09;5070284;28;19924;-73
2021/04/09 05:14:36;;;;;;;;;;;;;;;-142.75;61.00;78281.25;5069487;28;19987;-73
2021/04/09 05:17:01;;;;;;;;;;;;;;;-142.75;61.31;78293.06;5052506;28;20023;-73
2021/04/09 05:19:26;;;;;;;;;;;;;;;-142.75;61.53;78287.16;5052122;28;20271;-73
2021/04/09 05:21:51;;;;;;;;;;;;;;;-142.75;61.61;78293.06;5055104;28;19916;-73
2021/04/09 05:24:16;;;;;;;;;;;;;;;-142.75;61.71;78291.09;5042026;28;19916;-74
2021/04/09 05:26:42;;;;;;;;;;;;;;;-142.75;61.73;78291.09;5070194;28;19928;-73
2021/04/09 05:29:07;;;;;;;;;;;;;;;-142.75;61.41;78277.31;5070250;28;19912;-73
2021/04/09 05:31:33;;;;;;;;;;;;;;;-142.75;61.58;78277.31;5069824;28;19927;-71
2021/04/09 05:33:58;;;;;;;;;;;;;;;-142.75;61.41;78259.59;5071053;28;20461;-73
2021/04/09 05:36:23;;;;;;;;;;;;;;;-142.75;61.44;78251.72;5051477;28;19912;-73
2021/04/09 05:38:48;;;;;;;;;;;;;;;-142.75;61.40;78235.97;5069971;28;19924;-73
2021/04/09 05:41:14;;;;;;;;;;;;;;;-142.75;61.10;78210.38;5051688;28;19920;-74
2021/04/09 05:43:39;;;;;;;;;;;;;;;-142.75;60.98;78196.59;5069803;28;19912;-71
2021/04/09 05:46:04;;;;;;;;;;;;;;;-142.75;60.89;78200.53;5069840;28;20381;-72
2021/04/09 05:48:29;;;;;;;;;;;;;;;-142.75;61.03;78208.41;5069840;28;19919;-73
2021/04/09 05:50:54;;;;;;;;;;;;;;;-142.75;60.90;78200.53;5053337;28;19916;-74
2021/04/09 05:53:20;;;;;;;;;;;;;;;-142.75;61.30;78210.38;5053576;28;20370;-72
2021/04/09 05:55:45;;;;;;;;;;;;;;;-142.75;61.28;78206.44;5053763;28;20007;-73
2021/04/09 05:58:10;;;;;;;;;;;;;;;-142.75;61.00;78186.75;5071634;28;19935;-73
2021/04/09 06:00:35;;;;;;;;;;;;;;;-142.75;61.15;78188.72;5071318;28;19912;-72
2021/04/09 06:03:00;;;;;;;;;;;;;;;-142.75;60.67;78180.81;5051868;28;19916;-74
2021/04/09 06:05:26;;;;;;;;;;;;;;;-142.75;60.69;78165.06;5070375;28;19913;-74
2021/04/09 06:07:51;;;;;;;;;;;;;;;-142.75;60.52;78167.03;5069346;28;20003;-74
2021/04/09 06:10:17;;;;;;;;;;;;;;;-142.75;60.57;78147.34;5068169;28;19912;-73
2021/04/09 06:12:42;;;;;;;;;;;;;;;-142.75;60.63;78141.44;5050062;28;20388;-73
2021/04/09 06:15:08;;;;;;;;;;;;;;;-142.75;60.48;78125.69;5066192;28;19955;-73
2021/04/09 06:17:34;;;;;;;;;;;;;;;-142.75;60.51;78117.81;5068136;28;20389;-72
2021/04/09 06:19:59;;;;;;;;;;;;;;;-142.75;60.13;78086.31;5069253;28;19916;-73
2021/04/09 06:22:24;;;;;;;;;;;;;;;-142.75;60.10;78058.72;5065711;28;19913;-73
2021/04/09 06:24:50;;;;;;;;;;;;;;;-142.75;59.43;78058.72;5067286;28;19919;-74
2021/04/09 06:27:15;;;;;;;;;;;;;;;-142.75;59.26;78039.03;5068976;28;19995;-72
2021/04/09 06:29:41;;;;;;;;;;;;;;;-142.75;59.10;78031.16;5070224;28;20339;-73
2021/04/09 06:32:06;;;;;;;;;;;;;;;-142.75;59.47;78023.28;5051539;28;19970;-73
2021/04/09 06:34:32;;;;;;;;;;;;;;;-142.75;59.38;77993.75;5068919;28;19912;-72
2021/04/09 06:36:57;;;;;;;;;;;;;;;-142.75;58.73;77960.28;5070161;28;20404;-73
2021/04/09 06:39:22;;;;;;;;;;;;;;;-142.75;58.13;77907.09;5051764;28;19920;-74
2021/04/09 06:41:48;;;;;;;;;;;;;;;-142.75;56.88;77853.94;5052069;28;19912;-75
2021/04/09 06:44:14;;;;;;;;;;;;;;;-142.75;56.26;77826.38;5069740;28;19919;-73
2021/04/09 06:46:40;;;;;;;;;;;;;;;-142.75;56.40;77865.75;5069913;28;19928;-74
2021/04/09 06:49:06;;;;;;;;;;;;;;;-142.75;56.30;77850.00;5069806;28;19912;-74
2021/04/09 06:51:31;;;;;;;;;;;;;;;-142.75;56.12;77846.06;5070001;28;19912;-72
2021/04/09 06:53:57;;;;;;;;;;;;;;;-142.75;56.26;77834.25;5069971;28;20016;-73
2021/04/09 06:56:22;;;;;;;;;;;;;;;-142.75;56.63;77808.66;5069420;28;19912;-72
2021/04/09 06:58:48;;;;;;;;;;;;;;;-142.75;55.74;77787.00;5068576;28;19924;-73
2021/04/09 07:01:15;;;;;;;;;;;;;;;-142.75;55.18;77751.56;5069635;28;20002;-73
2021/04/09 07:03:40;;;;;;;;;;;;;;;-142.75;55.32;77743.69;5051921;28;20380;-73
2021/04/09 07:06:06;;;;;;;;;;;;;;;-142.75;55.30;77729.88;5069962;28;19912;-73
2021/04/09 07:08:36;;;;;;;;;;;;;;;-142.75;54.76;77702.31;5051500;28;19920;-74
2021/04/09 07:11:03;;;;;;;;;;;;;;;-142.75;53.91;77655.06;5069906;28;19995;-72
2021/04/09 07:13:28;;;;;;;;;;;;;;;-142.75;53.45;77651.13;5068309;28;19912;-72
2021/04/09 07:15:53;;;;;;;;;;;;;;;-142.75;54.46;77651.13;5068636;28;19931;-72
2021/04/09 07:18:19;;;;;;;;;;;;;;;-142.75;53.37;77619.63;5066524;28;20413;-74
2021/04/09 07:20:45;;;;;;;;;;;;;;;-142.75;54.29;77657.03;5068021;28;19912;-72
2021/04/09 07:23:11;;;;;;;;;;;;;;;-142.75;54.33;77686.56;5066370;28;20336;-72
2021/04/09 07:25:41;;;;;;;;;;;;;;;-142.75;54.63;77680.66;5065978;28;19916;-73
2021/04/09 07:28:15;;;;;;;;;;;;;;;-142.75;55.17;77720.03;5068281;28;19916;-73
2021/04/09 07:30:41;;;;;;;;;;;;;;;-142.75;54.98;77704.28;5068729;28;19912;-74
2021/04/09 07:33:08;;;;;;;;;;;;;;;-142.75;55.47;77723.97;5069790;28;19913;-72
2021/04/09 07:35:43;;;;;;;;;;;;;;;-142.75;55.24;77706.25;5069760;28;20348;-74
2021/04/09 07:38:08;;;;;;;;;;;;;;;-142.75;55.39;77716.09;5069501;28;19917;-74
2021/04/09 07:40:34;;;;;;;;;;;;;;;-142.75;54.88;77678.69;5067920;28;20355;-73
2021/04/09 07:43:00;;;;;;;;;;;;;;;-142.75;54.43;77576.31;5049685;28;20405;-74
2021/04/09 07:45:27;;;;;;;;;;;;;;;-142.75;53.13;77456.22;5065777;28;19912;-72
2021/04/09 07:48:02;;;;;;;;;;;;;;;-142.75;50.66;77377.44;5067830;28;20345;-73
2021/04/09 07:50:36;;;;;;;;;;;;;;;-142.75;49.48;77371.53;5066984;28;19919;-75
2021/04/09 07:53:01;;;;;;;;;;;;;;;-142.75;49.15;77393.19;5067266;28;20447;-73
2021/04/09 07:55:31;;;;;;;;;;;;;;;-142.75;50.84;77416.81;5066918;28;19916;-73
2021/04/09 07:58:11;;;;;;;;;;;;;;;-142.75;50.22;77408.94;5067031;28;19946;-73
2021/04/09 08:00:36;;;;;;;;;;;;;;;-142.75;49.88;77391.22;5070648;28;19995;-73
2021/04/09 08:03:01;;;;;;;;;;;;;;;-142.75;51.02;77468.03;5053720;28;20075;-73
2021/04/09 08:05:27;;;;;;;;;;;;;;;-142.75;51.30;77454.25;5072441;28;20274;-73
2021/04/09 08:07:52;;;;;;;;;;;;;;;-142.75;50.31;77387.28;5071802;28;19935;-74
2021/04/09 08:10:19;;;;;;;;;;;;;;;-142.75;50.16;77302.63;5072052;28;19912;-73
2021/04/09 08:12:50;;;;;;;;;;;;;;;-142.75;49.22;77216.00;5072049;28;20385;-73
2021/04/09 08:15:20;;;;;;;;;;;;;;;-142.75;46.23;77078.19;5072080;28;20523;-74
2021/04/09 08:18:15;;;;;;;;;;;;;;;-142.75;45.69;77101.81;5072398;28;19912;-74
2021/04/09 08:20:41;;;;;;;;;;;;;;;-142.75;46.48;77040.78;5054303;28;19913;-74
2021/04/09 08:23:09;;;;;;;;;;;;;;;-142.75;45.09;76952.19;5072005;28;19912;-74
2021/04/09 08:25:35;;;;;;;;;;;;;;;-142.75;45.04;76938.41;5054338;28;19961;-73
2021/04/09 08:28:01;;;;;;;;;;;;;;;-142.75;43.01;76838.00;5071773;28;20015;-73
2021/04/09 08:30:27;;;;;;;;;;;;;;;-142.75;41.74;76818.31;5071312;28;20358;-73
2021/04/09 08:32:53;;;;;;;;;;;;;;;-142.75;42.27;76889.19;5072084;28;20381;-74
2021/04/09 08:35:19;;;;;;;;;;;;;;;-142.75;43.43;76839.97;5053827;28;20007;-74
2021/04/09 08:37:44;;;;;;;;;;;;;;;-142.75;42.48;76956.13;5071767;28;19912;-73
2021/04/09 08:40:09;;;;;;;;;;;;;;;-142.75;43.87;76873.44;5071742;28;19939;-74
2021/04/09 08:42:35;;;;;;;;;;;;;;;-142.75;43.40;76804.53;5071126;28;19913;-74
2021/04/09 08:45:02;;;;;;;;;;;;;;;-142.75;41.34;76763.22;5071856;28;19912;-73
2021/04/09 08:47:29;;;;;;;;;;;;;;;-142.75;41.95;76670.69;5067400;28;19971;-74
2021/04/09 08:49:54;;;;;;;;;;;;;;;-142.75;39.89;76554.53;5034078;28;19920;-74
2021/04/09 08:52:20;;;;;;;;;;;;;;;-142.75;38.97;76528.97;5051216;28;20289;-75
2021/04/09 08:54:53;;;;;;;;;;;;;;;-142.75;39.52;76534.84;5070105;28;20341;-74
2021/04/09 08:57:37;;;;;;;;;;;;;;;-142.75;39.07;76546.66;5070863;28;19924;-74
2021/04/09 09:00:08;;;;;;;;;;;;;;;-142.75;39.07;76550.59;5071273;28;19917;-74
2021/04/09 09:02:44;;;;;;;;;;;;;;;-142.75;38.95;76591.94;5070950;28;19916;-73
2021/04/09 09:05:10;;;;;;;;;;;;;;;-142.75;39.29;76414.78;5071246;28;19912;-74
2021/04/09 09:07:55;;;;;;;;;;;;;;;-142.75;36.74;76316.38;5064822;28;20396;-73
2021/04/09 09:10:29;;;;;;;;;;;;;;;-142.75;39.49;76554.53;5069584;28;19959;-73
2021/04/09 09:13:08;;;;;;;;;;;;;;;-142.75;37.95;76495.50;5070947;28;19912;-74
2021/04/09 09:15:45;;;;;;;;;;;;;;;-142.75;38.40;76450.22;5053222;28;19938;-73
2021/04/09 09:18:22;;;;;;;;;;;;;;;-142.75;38.69;76393.13;5071541;28;19963;-74
2021/04/09 09:21:07;;;;;;;;;;;;;;;-142.75;37.13;76343.94;5070706;28;19919;-74
2021/04/09 09:23:49;;;;;;;;;;;;;;;-142.75;35.98;76397.06;5071012;28;19912;-74
2021/04/09 09:26:30;;;;;;;;;;;;;;;-142.75;36.77;76501.41;5066896;28;20469;-73
2021/04/09 09:29:14;;;;;;;;;;;;;;;-142.75;37.92;76436.44;5051701;28;19920;-73
2021/04/09 09:31:43;;;;;;;;;;;;;;;-142.75;37.56;76424.63;5070397;28;19912;-74
2021/04/09 09:34:18;;;;;;;;;;;;;;;-142.75;36.92;76288.81;5070729;28;19912;-73
2021/04/09 09:37:02;;;;;;;;;;;;;;;-142.75;34.10;76206.13;5052614;28;19913;-73
2021/04/09 09:39:32;;;;;;;;;;;;;;;-142.75;35.30;76326.22;5070375;28;20015;-73
2021/04/09 09:41:57;;;;;;;;;;;;;;;-142.75;37.46;76432.50;5066510;28;19916;-73
2021/04/09 09:44:23;;;;;;;;;;;;;;;-142.75;36.10;76544.69;5069994;28;20682;-73
2021/04/09 09:46:52;;;;;;;;;;;;;;;-142.75;38.57;76664.78;5052409;28;19912;-73
2021/04/09 09:49:18;;;;;;;;;;;;;;;-142.75;39.83;76715.97;5070386;28;19920;-74
2021/04/09 09:51:43;;;;;;;;;;;;;;;-142.75;40.26;76731.72;5069985;28;19919;-73
2021/04/09 09:54:08;;;;;;;;;;;;;;;-142.75;38.55;76633.28;5070024;28;19964;-74
2021/04/09 09:56:33;;;;;;;;;;;;;;;-142.75;38.93;76739.59;5051935;28;20012;-74
2021/04/09 09:58:59;;;;;;;;;;;;;;;-142.75;40.58;76735.66;5069958;28;19969;-73
2021/04/09 10:01:26;;;;;;;;;;;;;;;-142.75;40.03;76501.41;5069626;28;20057;-74
2021/04/09 10:03:52;;;;;;;;;;;;;;;-142.75;36.96;76377.38;5055896;28;20003;-73
2021/04/09 10:06:17;;;;;;;;;;;;;;;-142.75;35.29;76310.47;5050149;28;19999;-74
2021/04/09 10:08:43;;;;;;;;;;;;;;;-142.75;35.57;76336.06;5049136;28;19916;-73
2021/04/09 10:11:15;;;;;;;;;;;;;;;-142.75;35.89;76361.63;5049322;28;19912;-73
2021/04/09 10:13:41;;;;;;;;;;;;;;;-142.75;36.96;76416.75;5031878;28;19912;-73
2021/04/09 10:16:06;;;;;;;;;;;;;;;-142.75;37.52;76554.53;5063149;28;19920;-72
2021/04/09 10:18:31;;;;;;;;;;;;;;;-142.75;38.52;76542.72;5070103;28;19916;-73
2021/04/09 10:21:14;;;;;;;;;;;;;;;-142.75;36.25;76432.50;5069043;28;19999;-74
2021/04/09 10:23:39;;;;;;;;;;;;;;;-142.75;36.74;76379.34;5069860;28;20385;-74
2021/04/09 10:26:04;;;;;;;;;;;;;;;-142.75;35.02;76385.25;5068400;28;19920;-73
2021/04/09 10:28:36;;;;;;;;;;;;;;;-142.75;36.37;76365.56;5050403;28;19919;-74
2021/04/09 10:31:28;;;;;;;;;;;;;;;-142.75;36.64;76538.78;5069128;28;19920;-74
2021/04/09 10:33:55;;;;;;;;;;;;;;;-142.75;38.33;76631.31;5064738;28;19919;-73
2021/04/09 10:36:21;;;;;;;;;;;;;;;-142.75;39.29;76649.03;5069656;28;20377;-73
2021/04/09 10:38:48;;;;;;;;;;;;;;;-142.75;36.94;76662.81;5047564;28;20313;-73
2021/04/09 10:41:25;;;;;;;;;;;;;;;-142.75;39.20;76733.69;5068545;28;19948;-73
2021/04/09 10:43:55;;;;;;;;;;;;;;;-142.75;39.56;76771.09;5069501;28;20455;-74
2021/04/09 10:46:20;;;;;;;;;;;;;;;-142.75;40.10;76818.31;5051369;28;19913;-73
2021/04/09 10:48:45;;;;;;;;;;;;;;;-142.75;41.13;76836.03;5051560;28;19928;-73
2021/04/09 10:51:11;;;;;;;;;;;;;;;-142.75;41.56;76979.75;5050626;28;20400;-73
2021/04/09 10:53:37;;;;;;;;;;;;;;;-142.75;42.64;77050.63;5070042;28;19912;-72
2021/04/09 10:56:03;;;;;;;;;;;;;;;-142.75;43.26;77149.06;5070020;28;19918;-73
2021/04/09 10:58:28;;;;;;;;;;;;;;;-142.75;43.69;77200.25;5069870;28;19916;-73
2021/04/09 11:00:54;;;;;;;;;;;;;;;-142.75;44.17;77229.78;5050497;28;20492;-74
2021/04/09 11:03:19;;;;;;;;;;;;;;;-142.75;44.47;77235.69;5050253;28;19919;-73
2021/04/09 11:05:44;;;;;;;;;;;;;;;-142.75;45.02;77279.00;5070009;28;19916;-73
2021/04/09 11:08:10;;;;;;;;;;;;;;;-142.75;45.19;77286.88;5069406;28;19999;-73
2021/04/09 11:10:36;;;;;;;;;;;;;;;-142.75;45.68;77318.38;5069542;28;19935;-73
2021/04/09 11:13:02;;;;;;;;;;;;;;;-142.75;45.80;77312.47;5065207;28;19920;-73
2021/04/09 11:15:37;;;;;;;;;;;;;;;-142.75;45.57;77294.75;5065455;28;20328;-73
2021/04/09 11:18:03;;;;;;;;;;;;;;;-142.75;44.96;77204.19;5070178;28;19913;-74
2021/04/09 11:20:30;;;;;;;;;;;;;;;-142.75;44.41;77074.25;5069851;28;19965;-73
2021/04/09 11:22:58;;;;;;;;;;;;;;;-142.75;42.77;77072.28;5069883;28;19912;-73
2021/04/09 11:25:29;;;;;;;;;;;;;;;-142.75;43.18;76895.09;5052016;28;19919;-73
2021/04/09 11:27:54;;;;;;;;;;;;;;;-142.75;40.38;76731.72;5069870;28;19912;-73
2021/04/09 11:30:22;;;;;;;;;;;;;;;-142.75;37.37;76670.69;5069897;28;20050;-73
2021/04/09 11:32:48;;;;;;;;;;;;;;;-142.75;37.62;76676.59;5050808;28;20567;-73
2021/04/09 11:35:14;;;;;;;;;;;;;;;-142.75;37.61;76625.41;5053452;28;19912;-73
2021/04/09 11:37:47;;;;;;;;;;;;;;;-142.75;37.02;76660.84;5071924;28;20381;-74
2021/04/09 11:40:13;;;;;;;;;;;;;;;-142.75;37.95;76715.97;5073696;28;20274;-74
2021/04/09 11:42:38;;;;;;;;;;;;;;;-142.75;38.85;76761.25;5055397;28;19952;-74
2021/04/09 11:45:05;;;;;;;;;;;;;;;-142.75;39.44;76751.41;5073529;28;20005;-74
2021/04/09 11:47:38;;;;;;;;;;;;;;;-142.75;40.47;76832.09;5073455;28;20335;-73
2021/04/09 11:50:07;;;;;;;;;;;;;;;-142.75;40.65;76897.06;5073978;28;20482;-74
2021/04/09 11:52:47;;;;;;;;;;;;;;;-142.75;40.89;76885.25;5053934;28;20478;-74
2021/04/09 11:55:12;;;;;;;;;;;;;;;-142.75;41.94;76920.69;5065158;28;19912;-74
2021/04/09 11:57:38;;;;;;;;;;;;;;;-142.75;41.23;76895.09;5073353;28;19919;-74
2021/04/09 12:00:03;;;;;;;;;;;;;;;-142.75;40.69;76942.34;5055492;28;21666;-75
2021/04/09 12:02:28;;;;;;;;;;;;;;;-142.75;41.32;76936.44;5068697;28;19927;-74
2021/04/09 12:04:54;;;;;;;;;;;;;;;-142.75;41.86;76940.38;5072700;28;19913;-75
2021/04/09 12:07:24;;;;;;;;;;;;;;;-142.75;41.47;76952.19;5065482;28;19912;-73
2021/04/09 12:09:50;;;;;;;;;;;;;;;-142.75;42.49;76940.38;5073208;28;20305;-73
2021/04/09 12:12:16;;;;;;;;;;;;;;;-142.75;41.51;76954.16;5072345;28;19927;-72
2021/04/09 12:14:43;;;;;;;;;;;;;;;-142.75;41.69;76979.75;5057153;28;19916;-71
2021/04/09 12:17:08;;;;;;;;;;;;;;;-142.75;42.24;77027.00;5054067;28;19973;-72
2021/04/09 12:19:34;;;;;;;;;;;;;;;-142.75;42.51;77013.22;5066394;28;20377;-74
2021/04/09 12:21:59;;;;;;;;;;;;;;;-142.75;43.03;76962.03;5073056;28;19919;-71
2021/04/09 12:24:25;;;;;;;;;;;;;;;-142.75;41.91;76914.78;5065334;28;19923;-72
2021/04/09 12:26:50;;;;;;;;;;;;;;;-142.75;41.30;76981.72;5073024;28;19916;-73
2021/04/09 12:29:15;;;;;;;;;;;;;;;-142.75;42.69;77046.69;5072848;28;19983;-72